Stations météo

réclame
Mon MeteoGroup
Arroyo Del Ojanco, Espagne (8352): Température de l'air & dewpoint: 16.10.2017 01:00:00 - 22.10.2017 01:00:00 (CEST)Arroyo Del Ojanco, Espagne (8352): Vitesse du vent & gusts: 16.10.2017 01:00:00 - 22.10.2017 01:00:00 (CEST)Arroyo Del Ojanco, Espagne (8352): Direction du vent: 16.10.2017 01:00:00 - 22.10.2017 01:00:00 (CEST)Arroyo Del Ojanco, Espagne (8352): Quantités de précipitations: 16.10.2017 01:00:00 - 22.10.2017 01:00:00 (CEST)
Date & Time tt [°C] td [°C] ff [km/h] ff [knt] fx [km/h] fx [knt] dd rr [mm]
22.10.2017 01:00:00 - - - - - - - -
22.10.2017 00:00:00 - - - - - - - -
21.10.2017 23:00:00 - - - - - - - -
21.10.2017 22:00:00 - - - - - - - -
21.10.2017 21:00:00 - - - - - - - -
21.10.2017 20:00:00 - - - - - - - -
21.10.2017 19:00:00 - - - - - - - -
21.10.2017 18:00:00 - - - - - - - -
21.10.2017 17:00:00 - - - - - - - -
21.10.2017 16:00:00 - - - - - - - -
21.10.2017 15:00:00 - - - - - - - -
21.10.2017 14:00:00 - - - - - - - -
21.10.2017 13:00:00 - - - - - - - -
21.10.2017 12:00:00 - - - - - - - -
21.10.2017 11:00:00 - - - - - - - -
21.10.2017 10:00:00 - - - - - - - -
21.10.2017 09:00:00 - - - - - - - -
21.10.2017 08:00:00 - - - - - - - -
21.10.2017 07:00:00 - - - - - - - -
21.10.2017 06:00:00 - - - - - - - -
21.10.2017 05:00:00 - - - - - - - -
21.10.2017 04:00:00 - - - - - - - -
21.10.2017 03:00:00 - - - - - - - -
21.10.2017 02:00:00 - - - - - - - -
21.10.2017 01:00:00 - - - - - - - -
21.10.2017 00:00:00 - - - - - - - -
20.10.2017 23:00:00 14,4 12,4 0 0 4 2 N 0,0
20.10.2017 22:00:00 15,6 12,2 3 2 9 5 NNE 0,0
20.10.2017 21:00:00 17,3 11,3 4 2 14 8 ESE 0,0
20.10.2017 20:00:00 17,9 11,5 6 3 10 5 S -
20.10.2017 19:00:00 20,5 11,4 6 4 14 8 WSW 0,0
20.10.2017 18:00:00 21,5 11,8 7 4 17 9 W 0,0
20.10.2017 17:00:00 20,8 11,7 6 3 14 8 WNW 0,0
20.10.2017 16:00:00 20,9 11,8 10 5 21 12 WSW 0,0
20.10.2017 15:00:00 19,9 12,4 8 4 19 10 W 0,0
20.10.2017 14:00:00 18,5 12,3 8 5 19 10 SW -
20.10.2017 13:00:00 17,3 12,2 8 4 15 8 WSW 0,0
20.10.2017 12:00:00 16,3 12,3 4 2 8 5 W 0,0
20.10.2017 11:00:00 15,1 12,6 6 3 10 6 W 0,0
20.10.2017 10:00:00 13,9 11,2 0 0 8 4 N 0,0
20.10.2017 09:00:00 13,2 10,9 1 1 5 3 S 0,0
20.10.2017 08:00:00 12,5 11,1 0 0 0 0 N -
20.10.2017 07:00:00 13,0 10,5 2 1 6 4 SSW 0,0
20.10.2017 06:00:00 12,1 10,7 0 0 5 3 N 0,0
20.10.2017 05:00:00 12,2 10,6 3 2 10 5 ENE 0,0
20.10.2017 04:00:00 12,3 10,0 0 0 6 4 SE 0,0
20.10.2017 03:00:00 12,3 9,5 0 0 4 2 N 0,0
20.10.2017 02:00:00 13,4 8,1 1 1 14 8 S -
20.10.2017 01:00:00 13,6 7,6 7 4 11 6 S 0,0
20.10.2017 00:00:00 14,2 7,7 8 4 12 7 S 0,0
19.10.2017 23:00:00 14,5 8,0 8 5 16 9 S 0,0
19.10.2017 22:00:00 14,7 9,5 7 4 10 6 S 0,0
19.10.2017 21:00:00 15,0 10,0 7 4 17 9 SSW 0,0
19.10.2017 20:00:00 15,8 9,7 4 2 13 7 SW -
19.10.2017 19:00:00 16,9 8,9 8 4 33 18 SW 0,0
19.10.2017 18:00:00 17,6 9,0 17 9 34 18 SW 0,0
19.10.2017 17:00:00 16,6 8,1 13 7 27 15 SW 0,0
19.10.2017 16:00:00 16,5 8,0 13 7 25 13 WSW 0,0
19.10.2017 15:00:00 16,5 8,0 11 6 21 11 WSW 0,0
19.10.2017 14:00:00 17,5 8,6 5 3 16 8 W -
19.10.2017 13:00:00 15,5 10,1 4 2 9 5 NNE 0,0
19.10.2017 12:00:00 13,8 10,0 1 0 9 5 N 0,0
19.10.2017 11:00:00 13,0 11,1 5 3 11 6 W 0,0
19.10.2017 10:00:00 11,1 10,9 0 0 0 0 N 0,2
19.10.2017 09:00:00 10,6 10,4 0 0 0 0 N 0,3
19.10.2017 08:00:00 - - - - - - - -
19.10.2017 07:00:00 - - - - - - - -
19.10.2017 06:00:00 - - - - - - - -
19.10.2017 05:00:00 - - - - - - - -
19.10.2017 04:00:00 - - - - - - - -
19.10.2017 03:00:00 - - - - - - - -
19.10.2017 02:00:00 - - - - - - - -
19.10.2017 01:00:00 - - - - - - - -
19.10.2017 00:00:00 - - - - - - - -
18.10.2017 23:00:00 - - - - - - - -
18.10.2017 22:00:00 - - - - - - - -
18.10.2017 21:00:00 - - - - - - - -
18.10.2017 20:00:00 - - - - - - - -
18.10.2017 19:00:00 - - - - - - - -
18.10.2017 18:00:00 - - - - - - - -
18.10.2017 17:00:00 - - - - - - - -
18.10.2017 16:00:00 - - - - - - - -
18.10.2017 15:00:00 - - - - - - - -
18.10.2017 14:00:00 - - - - - - - -
18.10.2017 13:00:00 - - - - - - - -
18.10.2017 12:00:00 - - - - - - - -
18.10.2017 11:00:00 - - - - - - - -
18.10.2017 10:00:00 - - - - - - - -
18.10.2017 09:00:00 - - - - - - - -
18.10.2017 08:00:00 15,8 13,6 8 4 19 11 S -
18.10.2017 07:00:00 15,2 12,9 4 2 13 7 SSW 0,0
18.10.2017 06:00:00 14,1 11,6 1 0 9 5 SE 0,0
18.10.2017 05:00:00 15,0 11,8 3 2 11 6 SE 0,0
18.10.2017 04:00:00 14,4 11,4 0 0 8 4 N 0,0
18.10.2017 03:00:00 14,8 10,8 0 0 6 3 N 0,0
18.10.2017 02:00:00 15,8 11,2 5 3 15 8 SSE -
18.10.2017 01:00:00 16,4 11,1 0 0 11 6 N 0,0
18.10.2017 00:00:00 16,7 11,4 0 0 5 3 N 0,0
17.10.2017 23:00:00 17,2 11,3 2 1 9 5 NW 0,0
17.10.2017 22:00:00 19,3 11,8 4 2 14 8 ESE 0,0
17.10.2017 21:00:00 20,4 12,6 11 6 16 9 S 0,0
17.10.2017 20:00:00 21,2 13,1 10 5 13 7 S -
17.10.2017 19:00:00 22,2 13,8 6 4 13 7 SSW 0,0
17.10.2017 18:00:00 22,1 14,0 6 3 20 11 W 0,1
17.10.2017 17:00:00 24,3 12,9 10 5 24 13 SW 0,0
17.10.2017 16:00:00 23,3 13,2 3 2 7 4 NW 0,0
17.10.2017 15:00:00 23,3 13,2 3 1 12 7 W 0,0
17.10.2017 14:00:00 22,7 13,5 6 3 12 6 S -
17.10.2017 13:00:00 20,3 13,5 3 2 20 11 NNE 0,0
17.10.2017 12:00:00 16,8 12,8 10 5 21 11 N 0,0
17.10.2017 11:00:00 16,7 12,0 1 0 7 4 ENE 0,0
17.10.2017 10:00:00 15,5 12,1 4 2 10 6 NE 0,0
17.10.2017 09:00:00 12,4 11,0 1 1 9 5 N 0,0
17.10.2017 08:00:00 12,5 10,7 0 0 10 5 N -
17.10.2017 07:00:00 13,0 10,0 2 1 5 3 NE 0,0
17.10.2017 06:00:00 13,8 10,2 0 0 5 3 N 0,0
17.10.2017 05:00:00 14,5 10,3 0 0 0 0 N 0,0
17.10.2017 04:00:00 15,0 10,0 0 0 4 2 N 0,0
17.10.2017 03:00:00 16,3 10,4 1 0 4 2 NE 0,0
17.10.2017 02:00:00 17,4 10,8 4 2 9 5 NE -
17.10.2017 01:00:00 17,4 9,3 2 1 12 6 ENE 0,0
17.10.2017 00:00:00 19,7 9,9 10 5 14 8 S 0,0
16.10.2017 23:00:00 19,0 8,1 8 5 15 8 SSW 0,0
16.10.2017 22:00:00 21,0 8,3 4 2 10 6 NE 0,0
16.10.2017 21:00:00 23,8 9,4 6 3 19 10 ENE 0,0
16.10.2017 20:00:00 24,7 9,4 12 6 17 9 SSE -
16.10.2017 19:00:00 27,4 11,0 11 6 19 10 SW 0,0
16.10.2017 18:00:00 29,0 12,0 9 5 19 11 WSW 0,0
16.10.2017 17:00:00 29,5 12,4 9 5 22 12 WSW 0,0
16.10.2017 16:00:00 29,2 12,6 6 3 - - W -
16.10.2017 15:00:00 29,1 13,3 1 1 15 8 NNW 0,0
16.10.2017 14:00:00 27,2 12,8 8 4 16 8 WNW -
16.10.2017 13:00:00 26,0 13,8 6 3 11 6 W 0,0
16.10.2017 12:00:00 23,7 13,6 0 0 7 4 NNW 0,0
16.10.2017 11:00:00 20,9 12,3 0 0 7 4 NNW 0,0
16.10.2017 10:00:00 17,4 10,8 0 0 0 0 N 0,0
16.10.2017 09:00:00 14,2 8,8 0 0 0 0 N 0,0
16.10.2017 08:00:00 13,2 8,1 0 0 6 3 NE -
16.10.2017 07:00:00 13,8 7,6 0 0 8 4 N 0,0
16.10.2017 06:00:00 15,4 8,2 4 2 8 4 S 0,0
16.10.2017 05:00:00 15,9 7,9 0 0 5 3 S 0,0
16.10.2017 04:00:00 17,1 8,3 6 3 10 5 S 0,0
16.10.2017 03:00:00 17,6 8,2 0 0 7 4 E 0,0
16.10.2017 02:00:00 18,3 8,0 0 0 7 4 N -
16.10.2017 01:00:00 19,9 8,3 4 2 10 5 S 0,0

tt = Température de l'air
td = dewpoint
ff = Vitesse du vent
fx = gusts
dd = Direction du vent
rr = Quantités de précipitations

stations d'obs. à proximité